Time;durP1;ratioP1;P1;durP2;ratioP2;P2;SDS_P1;SDS_P2;PMS_P1;PMS_P2;Temp;Humidity;BMP_temperature;BMP_pressure;BME280_temperature;BME280_humidity;BME280_pressure;Samples;Min_cycle;Max_cycle;Signal;HPM_P1;HPM_P2
2022/10/05 00:01:23;;;;;;;10.60;9.60;;;10.80;99.90;;;;;;4979933;28;20462;-83
2022/10/05 00:03:51;;;;;;;17.37;11.20;;;10.90;99.90;;;;;;4980359;28;20234;-85
2022/10/05 00:06:18;;;;;;;10.03;9.03;;;10.90;99.90;;;;;;4980075;28;20462;-84
2022/10/05 00:08:45;;;;;;;10.17;9.17;;;10.90;99.90;;;;;;4980451;28;20452;-84
2022/10/05 00:11:15;;;;;;;9.50;8.70;;;11.00;99.90;;;;;;4980608;28;20460;-84
2022/10/05 00:13:42;;;;;;;8.90;8.20;;;11.00;99.90;;;;;;4978989;28;20490;-84
2022/10/05 00:16:15;;;;;;;10.53;9.37;;;11.00;99.90;;;;;;4979654;28;20466;-84
2022/10/05 00:18:45;;;;;;;8.73;7.93;;;11.10;99.90;;;;;;4979670;28;20450;-83
2022/10/05 00:21:20;;;;;;;9.80;8.87;;;11.20;99.90;;;;;;4979253;28;20515;-83
2022/10/05 00:23:47;;;;;;;9.17;8.23;;;11.20;99.90;;;;;;4978699;28;20476;-84
2022/10/05 00:26:19;;;;;;;9.07;8.30;;;11.30;99.90;;;;;;4978568;28;20454;-84
2022/10/05 00:28:46;;;;;;;9.77;8.70;;;11.30;99.90;;;;;;4979195;28;20439;-83
2022/10/05 00:31:17;;;;;;;9.00;8.20;;;11.30;99.90;;;;;;4978156;28;20484;-84
2022/10/05 00:33:44;;;;;;;9.70;8.80;;;11.30;99.90;;;;;;4978040;28;20486;-83
2022/10/05 00:36:11;;;;;;;9.17;8.43;;;11.20;99.90;;;;;;4978878;28;20463;-83
2022/10/05 00:38:38;;;;;;;8.87;8.17;;;11.20;99.90;;;;;;4978515;28;20450;-84
2022/10/05 00:41:09;;;;;;;8.30;7.50;;;11.20;99.90;;;;;;4979056;28;20463;-84
2022/10/05 00:43:57;;;;;;;10.03;7.97;;;11.20;99.90;;;;;;4979160;28;20569;-85
2022/10/05 00:46:29;;;;;;;8.40;7.70;;;11.20;99.90;;;;;;4978871;28;20868;-83
2022/10/05 00:49:05;;;;;;;9.60;8.70;;;11.20;99.90;;;;;;4978354;28;20463;-84
2022/10/05 00:51:36;;;;;;;10.13;8.97;;;11.10;99.90;;;;;;4978329;28;20445;-84
2022/10/05 00:54:17;;;;;;;8.77;7.90;;;11.10;99.90;;;;;;4978049;28;20493;-83
2022/10/05 00:57:00;;;;;;;9.20;8.40;;;11.00;99.90;;;;;;4978776;28;20462;-83
2022/10/05 00:59:42;;;;;;;8.70;7.90;;;10.90;99.90;;;;;;4973114;28;20454;-84
2022/10/05 01:02:14;;;;;;;8.23;7.40;;;10.90;99.90;;;;;;4977911;28;20457;-86
2022/10/05 01:04:47;;;;;;;10.52;8.90;;;10.90;99.90;;;;;;4978417;28;20473;-84
2022/10/05 01:07:22;;;;;;;10.33;9.27;;;10.80;99.90;;;;;;4979103;28;20203;-83
2022/10/05 01:09:56;;;;;;;7.57;6.77;;;10.80;99.90;;;;;;4984483;28;20541;-85
2022/10/05 01:12:30;;;;;;;10.27;8.20;;;10.90;99.90;;;;;;4985068;28;20448;-85
2022/10/05 01:15:06;;;;;;;11.27;9.13;;;10.80;99.90;;;;;;4982963;28;20495;-86
2022/10/05 01:17:40;;;;;;;10.20;9.10;;;10.80;99.90;;;;;;4987955;28;20442;-83
2022/10/05 01:20:18;;;;;;;9.80;8.30;;;10.80;99.90;;;;;;4989749;28;20441;-83
2022/10/05 01:23:10;;;;;;;9.77;8.77;;;10.70;99.90;;;;;;4991155;28;20448;-82
2022/10/05 01:25:48;;;;;;;9.07;8.27;;;10.80;99.90;;;;;;4977573;28;20831;-85
2022/10/05 01:28:23;;;;;;;13.47;10.00;;;10.80;99.90;;;;;;4985885;28;20461;-85
2022/10/05 01:30:56;;;;;;;9.17;8.50;;;10.80;99.90;;;;;;4985981;28;20458;-84
2022/10/05 01:33:30;;;;;;;14.15;9.80;;;10.80;99.90;;;;;;4985628;28;20442;-85
2022/10/05 01:36:05;;;;;;;10.43;9.43;;;10.80;99.90;;;;;;4986081;28;20593;-85
2022/10/05 01:38:43;;;;;;;9.50;8.60;;;10.80;99.90;;;;;;4985609;28;20455;-85
2022/10/05 01:41:21;;;;;;;10.20;9.23;;;10.80;99.90;;;;;;5022348;22;20491;-84
2022/10/05 01:43:53;;;;;;;9.38;8.45;;;10.80;99.90;;;;;;5001558;28;20464;-83
2022/10/05 01:46:27;;;;;;;10.40;9.60;;;10.70;99.90;;;;;;5001672;28;20217;-83
2022/10/05 01:49:22;;;;;;;10.70;9.63;;;10.60;99.90;;;;;;5001821;28;20453;-83
2022/10/05 01:52:02;;;;;;;9.40;8.57;;;10.60;99.90;;;;;;4966869;28;20452;-83
2022/10/05 01:54:41;;;;;;;11.23;10.03;;;10.60;99.90;;;;;;4977969;28;20493;-83
2022/10/05 01:57:22;;;;;;;10.27;9.17;;;10.60;99.90;;;;;;4963308;29;20464;-83
2022/10/05 02:00:05;;;;;;;12.50;10.60;;;10.60;99.90;;;;;;4980618;28;20553;-83
2022/10/05 02:02:36;;;;;;;11.17;10.07;;;10.60;99.90;;;;;;4982091;28;20833;-83
2022/10/05 02:05:08;;;;;;;15.60;12.00;;;10.50;99.90;;;;;;4962649;28;20474;-83
2022/10/05 02:07:39;;;;;;;10.10;9.10;;;10.50;99.90;;;;;;4962217;29;20463;-83
2022/10/05 02:10:14;;;;;;;11.50;10.37;;;10.50;99.90;;;;;;4962145;28;20470;-83
2022/10/05 02:12:44;;;;;;;11.60;10.57;;;10.40;99.90;;;;;;4962422;28;20972;-83
2022/10/05 02:15:15;;;;;;;14.30;12.90;;;10.40;99.90;;;;;;4961812;28;20487;-83
2022/10/05 02:17:45;;;;;;;12.73;11.43;;;10.40;99.90;;;;;;4961494;29;20458;-83
2022/10/05 02:20:19;;;;;;;13.37;11.30;;;10.30;99.90;;;;;;4980589;28;20485;-83
2022/10/05 02:22:49;;;;;;;14.20;12.70;;;10.30;99.90;;;;;;4981529;28;20454;-83
2022/10/05 02:25:20;;;;;;;12.93;11.60;;;10.30;99.90;;;;;;4974214;28;20452;-83
2022/10/05 02:27:52;;;;;;;12.80;11.02;;;10.30;99.90;;;;;;4961316;28;20806;-83
2022/10/05 02:30:20;;;;;;;12.80;11.60;;;10.30;99.90;;;;;;4981493;28;20231;-83
2022/10/05 02:32:54;;;;;;;12.07;10.57;;;10.30;99.90;;;;;;4981418;28;20513;-83
2022/10/05 02:35:22;;;;;;;14.98;13.40;;;10.20;99.90;;;;;;4970660;28;20254;-82
2022/10/05 02:38:00;;;;;;;16.00;14.40;;;10.10;99.90;;;;;;4956070;28;20209;-82
2022/10/05 02:40:37;;;;;;;15.63;13.73;;;10.20;99.90;;;;;;4975518;28;20480;-82
2022/10/05 02:43:13;;;;;;;14.48;12.55;;;10.20;99.90;;;;;;4975012;28;20461;-82
2022/10/05 02:45:50;;;;;;;13.03;11.30;;;10.30;99.90;;;;;;4956559;28;20234;-82
2022/10/05 02:48:26;;;;;;;12.88;11.52;;;10.30;99.90;;;;;;4956402;28;20454;-82
2022/10/05 02:51:00;;;;;;;12.67;10.53;;;10.30;99.90;;;;;;4971599;28;20233;-83
2022/10/05 02:53:33;;;;;;;13.53;12.23;;;10.30;99.90;;;;;;4955708;29;20479;-82
2022/10/05 02:56:14;;;;;;;12.48;11.25;;;10.30;99.90;;;;;;4969973;28;20496;-82
2022/10/05 02:58:48;;;;;;;12.10;10.90;;;10.30;99.90;;;;;;4975030;28;20199;-83
2022/10/05 03:01:24;;;;;;;12.15;11.05;;;10.30;99.90;;;;;;4971807;28;20223;-83
2022/10/05 03:03:59;;;;;;;12.67;10.07;;;10.30;99.90;;;;;;4963695;28;20241;-82
2022/10/05 03:06:28;;;;;;;11.80;10.57;;;10.30;99.90;;;;;;4955636;28;20458;-82
2022/10/05 03:09:02;;;;;;;11.63;10.48;;;10.30;99.90;;;;;;4967495;28;20224;-82
2022/10/05 03:11:37;;;;;;;10.90;9.90;;;10.30;99.90;;;;;;4972097;28;20203;-82
2022/10/05 03:14:13;;;;;;;11.25;10.15;;;10.30;99.90;;;;;;4956482;29;20209;-82
2022/10/05 03:16:53;;;;;;;11.35;10.23;;;10.30;99.90;;;;;;4960687;28;20207;-83
2022/10/05 03:19:40;;;;;;;14.40;12.70;;;10.30;99.90;;;;;;4975402;28;20230;-82
2022/10/05 03:22:16;;;;;;;13.50;12.20;;;10.30;99.90;;;;;;4984601;28;20210;-82
2022/10/05 03:24:59;;;;;;;12.93;11.63;;;10.30;99.90;;;;;;4966313;28;20211;-83
2022/10/05 03:27:36;;;;;;;11.77;10.68;;;10.30;99.90;;;;;;4970537;28;20212;-83
2022/10/05 03:30:07;;;;;;;11.98;10.60;;;10.30;99.90;;;;;;4979808;28;20264;-83
2022/10/05 03:32:48;;;;;;;13.00;11.80;;;10.20;99.90;;;;;;4963521;28;20211;-83
2022/10/05 03:35:23;;;;;;;12.80;11.20;;;10.20;99.90;;;;;;4961515;28;20861;-83
2022/10/05 03:37:59;;;;;;;14.70;13.30;;;10.20;99.90;;;;;;4979809;28;20458;-83
2022/10/05 03:40:34;;;;;;;17.85;11.82;;;10.20;99.90;;;;;;4977549;28;20485;-83
2022/10/05 03:43:16;;;;;;;13.57;12.17;;;10.10;99.90;;;;;;4960626;28;20220;-83
2022/10/05 03:45:51;;;;;;;13.93;12.17;;;10.00;99.90;;;;;;4972376;28;20454;-84
2022/10/05 03:48:25;;;;;;;12.40;11.10;;;9.90;99.90;;;;;;4978803;28;20461;-83
2022/10/05 03:51:00;;;;;;;14.73;13.23;;;9.90;99.90;;;;;;4979959;28;21004;-83
2022/10/05 03:53:31;;;;;;;13.00;11.80;;;9.90;99.90;;;;;;4972311;28;20450;-84
2022/10/05 03:56:05;;;;;;;13.82;12.38;;;9.80;99.90;;;;;;4960574;29;20475;-82
2022/10/05 03:58:39;;;;;;;13.65;12.32;;;9.80;99.90;;;;;;4966057;28;20224;-82
2022/10/05 04:01:11;;;;;;;14.23;12.82;;;9.80;99.90;;;;;;4982031;28;20251;-83
2022/10/05 04:03:44;;;;;;;18.65;14.88;;;9.80;99.90;;;;;;4973156;28;20218;-83
2022/10/05 04:06:16;;;;;;;14.90;13.40;;;9.80;99.90;;;;;;4962558;28;20222;-83
2022/10/05 04:08:47;;;;;;;13.27;11.75;;;9.80;99.90;;;;;;4969956;28;20461;-83
2022/10/05 04:11:19;;;;;;;15.35;13.70;;;9.80;99.90;;;;;;4981555;28;20225;-83
2022/10/05 04:13:52;;;;;;;14.20;12.68;;;9.80;99.90;;;;;;4973809;28;20206;-83
2022/10/05 04:16:24;;;;;;;15.13;12.00;;;9.80;99.90;;;;;;4962508;29;20233;-83
2022/10/05 04:19:00;;;;;;;14.77;12.00;;;9.80;99.90;;;;;;4970255;28;20210;-83
2022/10/05 04:21:31;;;;;;;14.20;12.70;;;9.70;99.90;;;;;;4981918;28;20208;-83
2022/10/05 04:24:01;;;;;;;18.55;13.10;;;9.70;99.90;;;;;;4972391;28;20207;-83
2022/10/05 04:26:35;;;;;;;16.55;12.70;;;9.70;99.90;;;;;;4961726;29;20210;-83
2022/10/05 04:29:07;;;;;;;13.98;12.55;;;9.80;99.90;;;;;;4971207;28;20207;-83
2022/10/05 04:31:51;;;;;;;14.63;13.13;;;9.70;99.90;;;;;;4975594;28;20216;-83
2022/10/05 04:34:36;;;;;;;13.50;12.10;;;9.70;99.90;;;;;;4981149;28;20217;-83
2022/10/05 04:37:08;;;;;;;13.85;12.55;;;9.70;99.90;;;;;;4970745;28;20459;-83
2022/10/05 04:39:42;;;;;;;16.33;14.73;;;9.70;99.90;;;;;;4960956;28;20302;-83
2022/10/05 04:42:18;;;;;;;35.60;16.42;;;9.70;99.90;;;;;;4970483;28;20293;-83
2022/10/05 04:45:04;;;;;;;19.13;16.80;;;9.70;99.90;;;;;;4960795;29;20207;-83
2022/10/05 04:48:03;;;;;;;17.23;15.43;;;9.70;99.90;;;;;;4960908;28;20485;-83
2022/10/05 04:50:47;;;;;;;16.60;13.63;;;9.70;99.90;;;;;;4956765;28;20480;-83
2022/10/05 04:53:24;;;;;;;16.23;14.48;;;9.70;99.90;;;;;;4977777;28;20210;-83
2022/10/05 04:55:56;;;;;;;13.57;12.27;;;9.70;99.90;;;;;;4964642;28;20226;-83
2022/10/05 04:58:34;;;;;;;17.00;12.43;;;9.70;99.90;;;;;;4962611;28;20561;-83
2022/10/05 05:01:15;;;;;;;13.33;11.90;;;9.70;99.90;;;;;;4979802;28;20234;-83
2022/10/05 05:04:06;;;;;;;13.70;11.00;;;9.70;99.90;;;;;;4983749;28;20959;-82
2022/10/05 05:06:43;;;;;;;12.73;11.48;;;9.70;99.90;;;;;;4974787;28;20202;-83
2022/10/05 05:09:43;;;;;;;13.30;12.05;;;9.70;99.90;;;;;;4968913;28;20296;-83
2022/10/05 05:12:24;;;;;;;14.95;11.55;;;9.70;99.90;;;;;;4963546;28;20229;-83
2022/10/05 05:15:12;;;;;;;14.25;12.82;;;9.70;99.90;;;;;;4963631;28;20704;-83
2022/10/05 05:18:00;;;;;;;13.02;11.90;;;9.60;99.90;;;;;;4964221;28;20211;-83
2022/10/05 05:20:38;;;;;;;11.98;10.80;;;9.60;99.90;;;;;;4966142;28;20233;-83
2022/10/05 05:23:18;;;;;;;11.20;10.20;;;9.60;99.90;;;;;;4963455;28;20214;-82
2022/10/05 05:25:53;;;;;;;11.93;10.82;;;9.60;99.90;;;;;;4975458;28;20212;-82
2022/10/05 05:28:28;;;;;;;12.65;11.45;;;9.60;99.90;;;;;;4972723;28;20205;-83
2022/10/05 05:31:05;;;;;;;12.95;11.75;;;9.50;99.90;;;;;;4962907;28;20256;-84
2022/10/05 05:33:39;;;;;;;13.02;10.25;;;9.50;99.90;;;;;;4981249;28;20219;-83
2022/10/05 05:36:34;;;;;;;14.65;12.25;;;9.50;99.90;;;;;;4974225;28;20224;-84
2022/10/05 05:39:19;;;;;;;17.58;13.27;;;9.50;99.90;;;;;;4958584;28;20676;-84
2022/10/05 05:41:59;;;;;;;15.13;13.55;;;9.50;99.90;;;;;;4979492;28;20209;-83
2022/10/05 05:44:28;;;;;;;13.40;12.10;;;9.50;99.90;;;;;;4975847;28;20260;-84
2022/10/05 05:47:00;;;;;;;15.82;14.23;;;9.50;99.90;;;;;;4960550;28;20706;-84
2022/10/05 05:49:35;;;;;;;13.65;12.25;;;9.50;99.90;;;;;;4963462;28;20217;-83
2022/10/05 05:52:06;;;;;;;18.85;14.32;;;9.50;99.90;;;;;;4968041;28;20206;-83
2022/10/05 05:54:41;;;;;;;13.63;12.32;;;9.60;99.90;;;;;;4975183;28;20197;-84
2022/10/05 05:57:15;;;;;;;18.70;14.10;;;9.70;99.90;;;;;;4959702;28;20712;-83
2022/10/05 05:59:55;;;;;;;14.67;13.13;;;9.70;99.90;;;;;;4972980;28;20237;-83
2022/10/05 06:02:28;;;;;;;16.00;13.50;;;9.80;99.90;;;;;;4961168;29;20456;-83
2022/10/05 06:05:08;;;;;;;18.55;13.80;;;9.80;99.90;;;;;;4982794;28;20460;-84
2022/10/05 06:07:37;;;;;;;15.00;11.90;;;9.90;99.90;;;;;;4985373;28;20211;-84
2022/10/05 06:10:25;;;;;;;17.20;13.85;;;9.90;99.90;;;;;;4968413;28;20483;-83
2022/10/05 06:12:53;;;;;;;16.70;15.03;;;10.00;99.90;;;;;;4967817;28;20201;-84
2022/10/05 06:15:29;;;;;;;16.20;14.50;;;10.10;99.90;;;;;;4974205;28;20495;-83
2022/10/05 06:17:59;;;;;;;17.33;13.60;;;10.10;99.90;;;;;;4972471;28;20462;-84
2022/10/05 06:20:30;;;;;;;14.63;13.13;;;10.20;99.90;;;;;;4972829;28;20949;-84
2022/10/05 06:23:01;;;;;;;15.80;14.40;;;10.30;99.90;;;;;;4972785;28;20458;-83
2022/10/05 06:25:37;;;;;;;16.63;13.70;;;10.40;99.90;;;;;;4973125;28;20812;-84
2022/10/05 06:28:10;;;;;;;17.50;15.70;;;10.40;99.90;;;;;;4974124;28;20441;-84
2022/10/05 06:30:48;;;;;;;14.10;12.60;;;10.40;99.90;;;;;;4971134;28;20538;-84
2022/10/05 06:33:33;;;;;;;16.10;14.43;;;10.50;99.90;;;;;;4969616;28;21083;-83
2022/10/05 06:36:16;;;;;;;15.00;13.23;;;10.60;99.90;;;;;;4962122;28;20494;-83
2022/10/05 06:39:34;;;;;;;14.30;12.80;;;10.70;99.90;;;;;;4976156;28;20479;-83
2022/10/05 06:42:36;;;;;;;17.13;14.40;;;10.70;99.90;;;;;;4940362;29;20444;-83
2022/10/05 06:45:12;;;;;;;16.47;14.20;;;10.80;99.90;;;;;;4909658;29;20559;-84
2022/10/05 06:47:49;;;;;;;16.87;14.60;;;10.90;99.90;;;;;;4964833;28;20992;-84
2022/10/05 06:50:24;;;;;;;15.67;14.03;;;11.00;99.90;;;;;;4971788;28;20466;-83
2022/10/05 06:53:13;;;;;;;17.90;14.63;;;11.10;99.90;;;;;;4968294;28;20451;-85
2022/10/05 06:55:50;;;;;;;14.83;13.30;;;11.20;99.90;;;;;;4960703;29;20526;-84
2022/10/05 06:58:32;;;;;;;17.53;15.73;;;11.20;99.90;;;;;;4958056;29;20459;-84
2022/10/05 07:01:03;;;;;;;17.90;13.67;;;11.30;99.90;;;;;;4957427;28;20835;-84
2022/10/05 07:03:38;;;;;;;17.30;15.60;;;11.50;99.90;;;;;;4960727;28;20510;-85
2022/10/05 07:06:14;;;;;;;18.80;14.73;;;11.60;99.90;;;;;;4961124;28;20999;-84
2022/10/05 07:08:54;;;;;;;16.60;14.83;;;11.70;99.90;;;;;;4960575;29;20577;-85
2022/10/05 07:11:38;;;;;;;18.23;16.43;;;11.80;99.90;;;;;;4960389;28;20563;-85
2022/10/05 07:14:26;;;;;;;16.93;13.40;;;11.90;99.90;;;;;;4960801;28;20835;-84
2022/10/05 07:17:16;;;;;;;15.13;13.60;;;12.00;99.90;;;;;;4961404;28;20527;-85
2022/10/05 07:19:51;;;;;;;18.50;14.07;;;12.10;99.90;;;;;;4952569;28;20544;-84
2022/10/05 07:22:42;;;;;;;14.47;13.00;;;12.20;99.90;;;;;;4962976;29;20541;-84
2022/10/05 07:25:15;;;;;;;14.43;12.90;;;12.30;99.90;;;;;;4962346;29;20495;-84
2022/10/05 07:27:48;;;;;;;15.50;12.57;;;12.40;99.90;;;;;;4962099;28;20466;-84
2022/10/05 07:30:17;;;;;;;12.70;11.63;;;12.50;99.90;;;;;;4962627;28;20476;-85
2022/10/05 07:32:55;;;;;;;12.90;11.70;;;12.60;99.90;;;;;;4962008;28;20468;-85
2022/10/05 07:38:20;;;;;;;12.77;11.47;;;12.80;99.90;;;;;;4961299;29;20451;-84
2022/10/05 08:22:33;;;;;;;10.00;9.00;;;13.70;99.90;;;;;;4820515;29;20856;-86
2022/10/05 08:35:30;;;;;;;10.40;9.43;;;14.00;99.90;;;;;;4826631;29;20458;-85
2022/10/05 08:38:44;;;;;;;9.83;8.83;;;14.20;99.90;;;;;;4844461;29;20427;-86
2022/10/05 09:06:52;;;;;;;7.60;6.97;;;15.30;99.90;;;;;;5884125;23;20412;-85
2022/10/05 09:34:22;;;;;;;5.27;4.77;;;17.10;99.90;;;;;;6164054;23;20539;-85
2022/10/05 10:00:11;;;;;;;;;;;;;;;;;;;;;
2022/10/05 10:19:59;;;;;;;;;;;;;;;;;;;;;
2022/10/05 10:23:15;;;;;;;2.00;1.90;;;20.10;99.90;;;;;;6159065;23;20477;-85
2022/10/05 10:30:28;;;;;;;2.30;2.10;;;20.40;99.90;;;;;;6185608;23;20397;-85
2022/10/05 14:06:54;;;;;;;1.17;1.17;;;28.10;52.40;;;;;;6226831;23;20410;-82
2022/10/05 14:09:30;;;;;;;1.50;1.07;;;27.40;53.50;;;;;;6223007;23;20761;-84
2022/10/05 14:12:13;;;;;;;1.30;1.20;;;27.40;55.20;;;;;;6223115;23;20407;-84
2022/10/05 14:14:46;;;;;;;1.30;0.90;;;27.20;54.00;;;;;;6200766;23;20476;-83
2022/10/05 14:17:15;;;;;;;1.30;1.10;;;27.00;55.00;;;;;;6223353;23;20448;-84
2022/10/05 14:19:45;;;;;;;4.27;1.40;;;26.60;54.40;;;;;;6223572;23;20439;-85
2022/10/05 14:22:21;;;;;;;1.20;1.20;;;26.60;56.10;;;;;;6224003;23;20434;-85
2022/10/05 14:24:51;;;;;;;1.10;1.10;;;26.20;55.40;;;;;;6224368;23;20482;-84
2022/10/05 14:27:24;;;;;;;1.23;0.97;;;25.70;55.70;;;;;;6222994;23;20493;-83
2022/10/05 14:29:58;;;;;;;2.43;1.40;;;25.50;57.60;;;;;;6222994;23;20422;-84
2022/10/05 14:32:29;;;;;;;1.20;1.20;;;25.50;57.70;;;;;;6223431;23;20399;-85
2022/10/05 14:35:00;;;;;;;1.50;1.40;;;25.50;56.50;;;;;;6225250;23;20415;-84
2022/10/05 14:37:43;;;;;;;1.47;1.40;;;25.50;56.80;;;;;;6224057;23;20437;-82
2022/10/05 14:40:26;;;;;;;1.50;1.37;;;25.50;55.60;;;;;;6227562;23;20774;-85
2022/10/05 14:42:53;;;;;;;1.27;1.17;;;25.60;55.80;;;;;;6226945;23;20401;-82
2022/10/05 14:45:23;;;;;;;1.00;1.00;;;25.70;56.10;;;;;;6228918;23;20495;-85
2022/10/05 14:47:52;;;;;;;1.47;1.43;;;25.90;56.20;;;;;;6224036;23;20441;-84
2022/10/05 14:50:25;;;;;;;1.20;0.90;;;26.10;56.00;;;;;;6224720;23;20748;-82
2022/10/05 14:53:12;;;;;;;0.90;0.90;;;26.00;55.60;;;;;;6225012;23;20462;-83
2022/10/05 14:55:54;;;;;;;1.73;1.13;;;26.10;55.50;;;;;;6224428;23;20494;-85
2022/10/05 14:58:36;;;;;;;0.83;0.83;;;26.00;55.90;;;;;;6226483;23;20465;-85
2022/10/05 15:01:16;;;;;;;1.10;1.10;;;25.80;56.20;;;;;;6226509;23;20450;-85
2022/10/05 15:03:55;;;;;;;1.47;1.37;;;25.70;56.20;;;;;;6234924;23;20398;-85
2022/10/05 15:06:38;;;;;;;1.20;1.10;;;25.60;57.00;;;;;;6225728;23;20410;-84
2022/10/05 15:09:22;;;;;;;1.37;1.27;;;25.60;56.60;;;;;;6223785;23;20426;-84
2022/10/05 15:11:51;;;;;;;2.97;1.20;;;25.60;57.90;;;;;;6225605;23;20395;-83
2022/10/05 15:14:24;;;;;;;1.40;1.30;;;25.40;57.10;;;;;;6225616;23;20412;-83
2022/10/05 15:16:53;;;;;;;1.20;0.97;;;25.30;57.80;;;;;;6224672;23;20435;-84
2022/10/05 15:19:24;;;;;;;1.53;1.20;;;25.20;57.20;;;;;;6225499;23;20406;-82
2022/10/05 15:22:04;;;;;;;1.13;1.13;;;25.00;57.80;;;;;;6223612;23;20892;-83
2022/10/05 15:24:39;;;;;;;1.37;1.37;;;24.80;58.30;;;;;;6224062;23;20394;-79
2022/10/05 15:27:18;;;;;;;2.40;1.30;;;24.80;59.20;;;;;;6224043;23;20401;-84
2022/10/05 15:29:57;;;;;;;1.33;1.03;;;24.70;58.30;;;;;;6225051;23;20426;-82
2022/10/05 15:32:40;;;;;;;1.53;1.30;;;24.70;58.90;;;;;;6223818;23;20480;-82
2022/10/05 15:35:35;;;;;;;3.33;1.10;;;24.70;59.60;;;;;;6223020;23;20440;-82
2022/10/05 15:38:11;;;;;;;1.80;1.10;;;24.80;60.70;;;;;;6224316;23;20516;-82
2022/10/05 15:40:45;;;;;;;1.20;1.10;;;24.60;60.20;;;;;;6222694;23;20428;-88
2022/10/05 15:43:16;;;;;;;1.40;1.30;;;24.40;59.90;;;;;;6223010;23;20421;-80
2022/10/05 15:45:52;;;;;;;2.30;1.40;;;24.10;60.00;;;;;;6224518;23;20397;-83
2022/10/05 15:48:24;;;;;;;1.30;1.20;;;23.90;60.80;;;;;;6225190;23;20481;-84
2022/10/05 15:50:56;;;;;;;2.53;1.20;;;23.70;60.70;;;;;;6224995;23;20439;-83
2022/10/05 15:53:32;;;;;;;3.20;1.30;;;23.50;61.30;;;;;;6223806;23;20386;-83
2022/10/05 15:56:07;;;;;;;1.27;1.20;;;23.40;61.60;;;;;;6222464;23;20519;-83
2022/10/05 15:58:51;;;;;;;1.33;1.23;;;23.30;62.00;;;;;;6224536;23;20463;-81
2022/10/05 16:01:21;;;;;;;1.80;1.10;;;23.20;61.70;;;;;;6231875;23;20543;-82
2022/10/05 16:03:56;;;;;;;1.10;1.10;;;23.00;62.80;;;;;;6218673;23;20471;-85
2022/10/05 16:49:16;;;;;;;1.80;1.10;;;21.20;69.20;;;;;;6219195;23;20400;-85
2022/10/05 16:52:12;;;;;;;1.20;1.20;;;21.00;70.00;;;;;;6216316;23;20445;-84
2022/10/05 17:02:14;;;;;;;1.50;1.40;;;20.70;71.70;;;;;;6215024;23;20420;-82
2022/10/05 17:09:02;;;;;;;1.20;1.20;;;20.50;73.00;;;;;;6216569;23;20348;-84
2022/10/05 17:12:09;;;;;;;1.27;1.20;;;20.40;73.40;;;;;;6219892;23;20450;-85
2022/10/05 17:14:47;;;;;;;1.27;1.17;;;20.20;74.20;;;;;;6220773;23;20414;-81
2022/10/05 17:17:28;;;;;;;2.63;2.10;;;20.10;75.10;;;;;;6222050;23;20443;-79
2022/10/05 17:20:09;;;;;;;1.93;1.77;;;19.90;75.50;;;;;;6226448;23;20754;-83
2022/10/05 17:22:45;;;;;;;2.27;1.63;;;19.80;76.20;;;;;;6226261;23;20468;-84
2022/10/05 17:25:17;;;;;;;1.60;1.50;;;19.70;76.30;;;;;;6225244;23;20946;-82
2022/10/05 17:27:52;;;;;;;1.63;1.40;;;19.50;76.80;;;;;;6224450;23;20412;-81
2022/10/05 17:30:38;;;;;;;1.90;1.27;;;19.40;77.50;;;;;;6225283;23;20463;-79
2022/10/05 17:33:23;;;;;;;1.60;1.47;;;19.40;78.00;;;;;;6222844;23;20397;-82
2022/10/05 17:35:54;;;;;;;1.80;1.70;;;19.30;78.50;;;;;;6223385;23;20401;-82
2022/10/05 17:38:22;;;;;;;1.23;1.20;;;19.20;79.20;;;;;;6223072;23;20998;-82
2022/10/05 17:41:20;;;;;;;1.50;1.40;;;19.10;80.00;;;;;;6223627;23;20432;-82
2022/10/05 17:44:23;;;;;;;2.40;2.20;;;19.10;80.60;;;;;;6102872;23;20770;-82
2022/10/05 17:46:57;;;;;;;2.20;1.63;;;19.00;81.00;;;;;;6174915;23;20504;-82
2022/10/05 17:55:44;;;;;;;1.57;1.40;;;19.00;82.30;;;;;;6232267;23;20401;-85
2022/10/05 17:58:59;;;;;;;2.30;2.10;;;19.00;83.00;;;;;;6225120;23;21036;-82
2022/10/05 18:01:29;;;;;;;2.63;1.90;;;18.80;83.50;;;;;;6227008;23;20454;-82
2022/10/05 18:04:38;;;;;;;1.83;1.73;;;18.80;84.00;;;;;;6224143;23;20523;-82
2022/10/05 18:07:24;;;;;;;2.47;1.83;;;18.70;84.80;;;;;;6224736;23;20419;-82
2022/10/05 18:09:57;;;;;;;2.13;1.90;;;18.60;85.80;;;;;;6227331;23;20448;-82
2022/10/05 18:12:44;;;;;;;3.97;2.17;;;18.50;86.60;;;;;;6226760;23;20868;-81
2022/10/05 18:15:47;;;;;;;2.10;1.70;;;18.50;87.30;;;;;;6226617;23;20411;-82
2022/10/05 18:18:34;;;;;;;1.67;1.57;;;18.40;87.80;;;;;;6226147;23;20451;-82
2022/10/05 18:21:29;;;;;;;2.27;2.13;;;18.40;88.40;;;;;;6223599;23;20451;-82
2022/10/05 18:24:25;;;;;;;1.63;1.57;;;18.30;89.00;;;;;;6218392;23;20506;-82
2022/10/05 18:27:03;;;;;;;2.83;2.70;;;18.30;90.20;;;;;;6180511;23;20447;-82
2022/10/05 18:30:04;;;;;;;3.43;1.83;;;18.30;90.00;;;;;;6222743;23;20399;-86
2022/10/05 18:33:03;;;;;;;2.30;2.10;;;18.20;90.30;;;;;;6225343;23;20403;-86
2022/10/05 18:35:36;;;;;;;1.97;1.77;;;18.10;90.60;;;;;;6224210;23;20474;-87
2022/10/05 18:38:13;;;;;;;2.70;2.07;;;18.10;91.00;;;;;;6223176;23;20459;-84
2022/10/05 18:40:50;;;;;;;2.30;2.10;;;18.00;91.10;;;;;;6223278;23;20442;-83
2022/10/05 18:43:29;;;;;;;2.10;2.00;;;18.10;91.60;;;;;;6224227;23;20406;-84
2022/10/05 18:49:08;;;;;;;2.30;2.10;;;18.00;91.70;;;;;;6200350;23;20407;-83
2022/10/05 18:51:43;;;;;;;2.10;1.90;;;18.00;92.00;;;;;;6231278;23;20482;-82
2022/10/05 18:54:33;;;;;;;3.43;3.23;;;18.00;92.10;;;;;;6223286;23;20411;-83
2022/10/05 18:57:24;;;;;;;2.53;2.37;;;18.00;92.20;;;;;;6222402;23;20400;-84
2022/10/05 18:59:59;;;;;;;2.60;2.40;;;18.00;92.50;;;;;;6222572;23;20448;-83
2022/10/05 19:02:34;;;;;;;2.13;1.90;;;18.00;92.60;;;;;;6223128;23;20416;-83
2022/10/05 19:05:13;;;;;;;2.60;2.40;;;18.00;92.90;;;;;;6223278;23;20459;-83
2022/10/05 19:07:48;;;;;;;3.57;3.03;;;17.80;93.30;;;;;;6221836;23;20470;-84
2022/10/05 19:10:25;;;;;;;2.97;2.70;;;17.80;93.80;;;;;;6222427;23;20446;-82
2022/10/05 19:13:08;;;;;;;2.80;2.60;;;17.80;94.20;;;;;;6224111;23;20396;-82
2022/10/05 19:15:45;;;;;;;2.57;2.43;;;17.70;94.40;;;;;;6223727;23;20456;-82
2022/10/05 19:18:29;;;;;;;2.53;2.33;;;17.70;94.80;;;;;;6225252;23;20819;-83
2022/10/05 19:21:01;;;;;;;2.37;2.27;;;17.60;95.20;;;;;;6223820;23;20522;-83
2022/10/05 19:23:46;;;;;;;4.80;2.00;;;17.70;95.50;;;;;;6222757;23;20400;-83
2022/10/05 19:26:24;;;;;;;2.87;2.00;;;17.70;95.80;;;;;;6224865;23;20395;-83
2022/10/05 19:29:01;;;;;;;1.77;1.67;;;17.70;96.10;;;;;;6224564;23;20397;-84
2022/10/05 19:31:35;;;;;;;2.63;1.80;;;17.60;96.40;;;;;;6224758;23;20432;-84
2022/10/05 19:34:20;;;;;;;2.50;2.30;;;17.60;96.80;;;;;;6224581;23;20401;-83
2022/10/05 19:36:57;;;;;;;3.10;2.37;;;17.50;97.10;;;;;;6224312;23;20396;-82
2022/10/05 19:39:37;;;;;;;2.83;2.73;;;17.50;97.70;;;;;;6224017;23;20436;-82
2022/10/05 19:42:21;;;;;;;2.77;2.50;;;17.40;98.00;;;;;;6224354;23;20486;-83
2022/10/05 19:45:01;;;;;;;2.40;2.20;;;17.50;98.30;;;;;;6223999;23;20407;-83
2022/10/05 19:47:38;;;;;;;2.10;1.90;;;17.50;98.70;;;;;;6225363;23;20399;-82
2022/10/05 19:50:20;;;;;;;3.10;2.90;;;17.40;98.90;;;;;;6224427;23;20435;-83
2022/10/05 19:52:50;;;;;;;2.40;2.30;;;17.40;99.30;;;;;;6223736;23;20397;-83
2022/10/05 19:55:25;;;;;;;5.57;2.97;;;17.40;99.50;;;;;;6223476;23;20858;-83
2022/10/05 19:57:54;;;;;;;4.00;2.30;;;17.30;99.90;;;;;;6224404;23;20460;-82
2022/10/05 20:00:24;;;;;;;2.90;2.70;;;17.30;99.90;;;;;;6224799;23;20431;-82
2022/10/05 20:02:52;;;;;;;2.93;2.60;;;17.30;99.90;;;;;;6224016;23;20413;-84
2022/10/05 20:05:18;;;;;;;2.27;2.17;;;17.30;99.90;;;;;;6227745;23;20481;-80
2022/10/05 20:07:45;;;;;;;6.83;3.10;;;17.40;99.90;;;;;;6230898;23;20411;-81
2022/10/05 20:10:28;;;;;;;4.03;2.70;;;17.30;99.90;;;;;;6230316;23;20459;-82
2022/10/05 20:12:58;;;;;;;2.33;2.23;;;17.30;99.90;;;;;;6225208;23;20431;-83
2022/10/05 20:21:44;;;;;;;5.03;2.60;;;17.10;99.90;;;;;;6233231;23;20434;-82
2022/10/05 20:24:13;;;;;;;2.90;2.77;;;17.00;99.90;;;;;;6232500;23;20439;-82
2022/10/05 20:29:29;;;;;;;2.70;2.50;;;17.00;99.90;;;;;;6232134;23;20377;-82
2022/10/05 20:31:56;;;;;;;2.57;2.37;;;16.90;99.90;;;;;;6233395;23;20418;-82
2022/10/05 20:34:23;;;;;;;3.30;2.73;;;16.80;99.90;;;;;;6233584;23;20493;-82
2022/10/05 20:36:51;;;;;;;5.13;2.43;;;16.70;99.90;;;;;;6233035;23;20437;-82
2022/10/05 20:39:20;;;;;;;3.13;2.27;;;16.80;99.90;;;;;;6233723;23;20446;-82
2022/10/05 20:41:46;;;;;;;3.70;2.40;;;16.80;99.90;;;;;;6233704;23;20474;-81
2022/10/05 20:44:13;;;;;;;3.00;2.80;;;16.80;99.90;;;;;;6238916;23;20413;-81
2022/10/05 20:46:42;;;;;;;2.87;2.67;;;16.70;99.90;;;;;;6234533;23;20560;-82
2022/10/05 20:49:09;;;;;;;3.50;2.47;;;16.70;99.90;;;;;;6233487;23;20486;-81